createdAt,value
2024-02-15T00:00:18.509Z,11.37
2024-02-15T00:02:48.280Z,11.40
2024-02-15T00:05:17.001Z,11.39
2024-02-15T00:07:45.114Z,11.37
2024-02-15T00:10:12.485Z,11.38
2024-02-15T00:12:39.072Z,11.36
2024-02-15T00:15:06.100Z,11.37
2024-02-15T00:17:33.696Z,11.41
2024-02-15T00:20:01.307Z,11.44
2024-02-15T00:22:27.875Z,11.43
2024-02-15T00:24:54.711Z,11.42
2024-02-15T00:27:21.430Z,11.43
2024-02-15T00:29:48.029Z,11.40
2024-02-15T00:32:14.641Z,11.45
2024-02-15T00:34:41.662Z,11.42
2024-02-15T00:37:08.614Z,11.42
2024-02-15T00:39:35.175Z,11.46
2024-02-15T00:42:02.100Z,11.48
2024-02-15T00:44:29.022Z,11.51
2024-02-15T00:46:56.891Z,11.53
2024-02-15T00:49:24.284Z,11.53
2024-02-15T00:51:51.082Z,11.53
2024-02-15T00:54:18.178Z,11.50
2024-02-15T00:56:44.834Z,11.50
2024-02-15T00:59:11.394Z,11.52
2024-02-15T01:01:38.992Z,11.53
2024-02-15T01:04:05.877Z,11.54
2024-02-15T01:06:34.128Z,11.53
2024-02-15T01:09:04.733Z,11.53
2024-02-15T01:11:36.744Z,11.46
2024-02-15T01:14:03.624Z,11.52
2024-02-15T01:16:30.172Z,11.53
2024-02-15T01:18:56.903Z,11.52
2024-02-15T01:21:23.678Z,11.52
2024-02-15T01:23:50.228Z,11.55
2024-02-15T01:26:16.807Z,11.53
2024-02-15T01:28:44.341Z,11.56
2024-02-15T01:31:12.267Z,11.55
2024-02-15T01:33:39.037Z,11.57
2024-02-15T01:36:06.366Z,11.57
2024-02-15T01:38:33.025Z,11.60
2024-02-15T01:40:59.608Z,11.54
2024-02-15T01:43:26.645Z,11.52
2024-02-15T01:45:53.478Z,11.56
2024-02-15T01:48:20.440Z,11.54
2024-02-15T01:50:48.455Z,11.53
2024-02-15T01:53:15.099Z,11.53
2024-02-15T01:55:41.878Z,11.53
2024-02-15T01:58:08.746Z,11.56
2024-02-15T02:00:37.414Z,11.58
2024-02-15T02:03:04.744Z,11.53
2024-02-15T02:05:32.849Z,11.54
2024-02-15T02:08:02.436Z,11.58
2024-02-15T02:10:33.713Z,11.58
2024-02-15T02:13:04.040Z,11.57
2024-02-15T02:15:32.990Z,11.53
2024-02-15T02:18:02.659Z,11.55
2024-02-15T02:20:30.139Z,11.49
2024-02-15T02:23:08.561Z,11.49
2024-02-15T02:25:35.851Z,11.44
2024-02-15T02:28:02.956Z,11.50
2024-02-15T02:30:30.796Z,11.51
2024-02-15T02:33:01.223Z,11.52
2024-02-15T02:35:29.189Z,11.43
2024-02-15T02:37:56.074Z,11.46
2024-02-15T02:40:22.620Z,11.50
2024-02-15T02:42:49.138Z,11.51
2024-02-15T02:45:15.696Z,11.53
2024-02-15T02:47:42.330Z,11.57
2024-02-15T02:50:09.452Z,11.60
2024-02-15T02:52:36.152Z,11.58
2024-02-15T02:55:02.660Z,11.57
2024-02-15T02:57:29.178Z,11.49
2024-02-15T02:59:55.765Z,11.48
2024-02-15T03:02:23.607Z,11.54
2024-02-15T03:04:50.487Z,11.58
2024-02-15T03:07:19.573Z,11.59
2024-02-15T03:09:46.221Z,11.57
2024-02-15T03:12:12.713Z,11.53
2024-02-15T03:14:39.295Z,11.52
2024-02-15T03:17:07.203Z,11.53
2024-02-15T03:19:33.802Z,11.59
2024-02-15T03:22:01.522Z,11.63
2024-02-15T03:24:28.137Z,11.67
2024-02-15T03:26:56.658Z,11.67
2024-02-15T03:29:23.738Z,11.67
2024-02-15T03:31:50.326Z,11.63
2024-02-15T03:34:17.147Z,11.59
2024-02-15T03:36:43.882Z,11.59
2024-02-15T03:39:10.587Z,11.61
2024-02-15T03:41:37.284Z,11.63
2024-02-15T03:44:03.915Z,11.64
2024-02-15T03:46:30.431Z,11.65
2024-02-15T03:48:58.367Z,11.59
2024-02-15T03:51:25.703Z,11.56
2024-02-15T03:53:53.406Z,11.56
2024-02-15T03:56:22.573Z,11.58
2024-02-15T03:58:51.527Z,11.58
2024-02-15T04:01:18.215Z,11.58
2024-02-15T04:03:45.715Z,11.58
2024-02-15T04:06:12.633Z,11.61
2024-02-15T04:08:40.256Z,11.64
2024-02-15T04:11:08.506Z,11.65
2024-02-15T04:13:35.174Z,11.66
2024-02-15T04:16:01.781Z,11.63
2024-02-15T04:18:31.010Z,11.61
2024-02-15T04:20:57.755Z,11.61
2024-02-15T04:23:25.029Z,11.63
2024-02-15T04:25:52.945Z,11.61
2024-02-15T04:28:19.471Z,11.62
2024-02-15T04:30:47.908Z,11.62
2024-02-15T04:33:16.770Z,11.57
2024-02-15T04:35:44.874Z,11.52
2024-02-15T04:38:11.476Z,11.52
2024-02-15T04:40:40.526Z,11.56
2024-02-15T04:43:07.898Z,11.51
2024-02-15T04:45:34.482Z,11.52
2024-02-15T04:48:03.261Z,11.48
2024-02-15T04:50:30.563Z,11.47
2024-02-15T04:52:57.366Z,11.49
2024-02-15T04:55:24.251Z,11.49
2024-02-15T04:57:55.855Z,11.48
2024-02-15T05:00:24.204Z,11.44
2024-02-15T05:02:51.145Z,11.46
2024-02-15T05:05:18.011Z,11.51
2024-02-15T05:07:44.770Z,11.53
2024-02-15T05:10:11.594Z,11.52
2024-02-15T05:12:38.835Z,11.55
2024-02-15T05:15:12.958Z,11.50
2024-02-15T05:17:44.766Z,11.44
2024-02-15T05:20:12.916Z,11.46
2024-02-15T05:22:41.860Z,11.52
2024-02-15T05:25:09.718Z,11.53
2024-02-15T05:27:37.180Z,11.56
2024-02-15T05:30:08.064Z,11.55
2024-02-15T05:32:42.424Z,11.56
2024-02-15T05:35:11.200Z,11.58
2024-02-15T05:37:38.344Z,11.55
2024-02-15T05:40:05.999Z,11.56
2024-02-15T05:42:32.542Z,11.53
2024-02-15T05:45:33.999Z,11.56
2024-02-15T05:48:01.513Z,11.55
2024-02-15T05:50:30.509Z,11.54
2024-02-15T05:52:59.192Z,11.57
2024-02-15T05:55:27.402Z,11.51
2024-02-15T05:57:54.487Z,11.53
2024-02-15T06:00:23.505Z,11.53
2024-02-15T06:02:51.481Z,11.53
2024-02-15T06:05:18.694Z,11.50
2024-02-15T06:07:45.840Z,11.50
2024-02-15T06:10:12.525Z,11.56
2024-02-15T06:12:39.118Z,11.55
2024-02-15T06:15:08.249Z,11.58
2024-02-15T06:17:35.027Z,11.61
2024-02-15T06:20:01.649Z,11.56
2024-02-15T06:22:28.287Z,11.53
2024-02-15T06:24:54.833Z,11.55
2024-02-15T06:27:21.465Z,11.62
2024-02-15T06:30:06.818Z,11.59
2024-02-15T06:32:52.118Z,11.51
2024-02-15T06:35:37.212Z,11.44
2024-02-15T06:38:22.436Z,11.49
2024-02-15T06:40:48.944Z,11.53
2024-02-15T06:43:15.482Z,11.56
2024-02-15T06:45:47.485Z,11.58
2024-02-15T06:48:14.547Z,11.63
2024-02-15T06:50:41.231Z,11.61
2024-02-15T06:53:09.560Z,11.61
2024-02-15T06:55:40.403Z,11.62
2024-02-15T06:58:07.031Z,11.61
2024-02-15T07:00:33.665Z,11.59
2024-02-15T07:03:00.402Z,11.73
2024-02-15T07:05:29.138Z,11.92
2024-02-15T07:07:57.771Z,12.14
2024-02-15T07:10:24.291Z,12.24
2024-02-15T07:12:51.120Z,12.32
2024-02-15T07:15:18.424Z,12.45
2024-02-15T07:17:45.290Z,12.50
2024-02-15T07:20:15.423Z,12.54
2024-02-15T07:22:42.053Z,12.60
2024-02-15T07:25:09.972Z,12.65
2024-02-15T07:27:36.490Z,12.67
2024-02-15T07:30:06.078Z,12.61
2024-02-15T07:32:32.861Z,12.62
2024-02-15T07:34:59.508Z,12.67
2024-02-15T07:37:27.288Z,12.70
2024-02-15T07:39:54.034Z,12.71
2024-02-15T07:42:20.597Z,12.71
2024-02-15T07:44:47.277Z,12.76
2024-02-15T07:47:13.803Z,12.69
2024-02-15T07:49:40.503Z,12.72
2024-02-15T07:52:07.159Z,12.79
2024-02-15T07:54:34.490Z,12.73
2024-02-15T07:57:01.193Z,12.81
2024-02-15T07:59:27.727Z,12.72
2024-02-15T08:01:54.346Z,12.52
2024-02-15T08:04:24.775Z,12.56
2024-02-15T08:06:54.668Z,12.60
2024-02-15T08:09:23.069Z,12.69
2024-02-15T08:11:50.673Z,12.74
2024-02-15T08:14:17.316Z,12.73
2024-02-15T08:16:43.828Z,12.69
2024-02-15T08:19:10.616Z,12.75
2024-02-15T08:21:38.604Z,12.77
2024-02-15T08:24:06.953Z,12.72
2024-02-15T08:26:34.559Z,12.73
2024-02-15T08:29:01.109Z,12.78
2024-02-15T08:31:27.690Z,12.79
2024-02-15T08:33:54.422Z,12.80
2024-02-15T08:36:22.241Z,12.81
2024-02-15T08:38:51.585Z,12.82
2024-02-15T08:41:22.098Z,12.81
2024-02-15T08:43:51.594Z,12.81
2024-02-15T08:46:18.169Z,12.90
2024-02-15T08:48:45.928Z,12.80
2024-02-15T08:51:13.272Z,12.80
2024-02-15T08:53:39.936Z,12.73
2024-02-15T08:56:07.257Z,12.64
2024-02-15T08:58:33.861Z,12.62
2024-02-15T09:01:00.470Z,12.68
2024-02-15T09:03:27.044Z,12.72
2024-02-15T09:05:53.702Z,12.69
2024-02-15T09:08:22.062Z,12.67
2024-02-15T09:10:50.652Z,12.67
2024-02-15T09:13:17.192Z,12.72
2024-02-15T09:15:43.841Z,12.80
2024-02-15T09:18:13.397Z,12.78
2024-02-15T09:20:45.869Z,12.82
2024-02-15T09:23:13.346Z,12.78
2024-02-15T09:25:40.013Z,12.80
2024-02-15T09:28:06.808Z,12.89
2024-02-15T09:30:34.580Z,12.98
2024-02-15T09:33:01.411Z,12.92
2024-02-15T09:35:28.181Z,12.94
2024-02-15T09:37:56.549Z,12.92
2024-02-15T09:40:26.786Z,12.87
2024-02-15T09:42:54.032Z,12.85
2024-02-15T09:45:21.994Z,12.87
2024-02-15T09:47:51.642Z,12.90
2024-02-15T09:50:18.683Z,12.89
2024-02-15T09:53:02.712Z,12.93
2024-02-15T09:55:30.072Z,13.01
2024-02-15T09:57:56.727Z,13.09
2024-02-15T10:00:24.582Z,13.13
2024-02-15T10:02:56.401Z,13.15
2024-02-15T10:05:24.327Z,13.14
2024-02-15T10:07:51.096Z,13.09
2024-02-15T10:10:26.516Z,13.12
2024-02-15T10:12:55.851Z,13.10
2024-02-15T10:15:33.664Z,13.13
2024-02-15T10:18:03.459Z,13.21
2024-02-15T10:20:30.348Z,13.25
2024-02-15T10:23:10.610Z,13.10
2024-02-15T10:25:38.493Z,13.13
2024-02-15T10:28:12.925Z,13.06
2024-02-15T10:30:46.325Z,13.14
2024-02-15T10:33:40.973Z,13.22
2024-02-15T10:36:09.623Z,13.20
2024-02-15T10:38:39.896Z,13.13
2024-02-15T10:41:09.266Z,13.10
2024-02-15T10:43:39.160Z,13.12
2024-02-15T10:46:07.009Z,13.17
2024-02-15T10:48:35.157Z,13.22
2024-02-15T10:51:04.898Z,13.21
2024-02-15T10:53:33.760Z,13.22
2024-02-15T10:56:12.679Z,13.20
2024-02-15T10:58:49.433Z,13.22
2024-02-15T11:01:19.224Z,13.25
2024-02-15T11:03:57.393Z,13.24
2024-02-15T11:06:27.854Z,13.29
2024-02-15T11:08:55.440Z,13.27
2024-02-15T11:11:22.812Z,13.20
2024-02-15T11:13:50.228Z,13.21
2024-02-15T11:16:44.939Z,13.31
2024-02-15T11:19:11.964Z,13.40
2024-02-15T11:21:55.274Z,13.50
2024-02-15T11:24:31.000Z,13.62
2024-02-15T11:27:05.178Z,13.67
2024-02-15T11:29:50.929Z,13.77
2024-02-15T11:32:36.498Z,13.82
2024-02-15T11:35:12.491Z,13.84
2024-02-15T11:37:55.089Z,13.78
2024-02-15T11:40:30.288Z,13.80
2024-02-15T11:43:02.661Z,13.85
2024-02-15T11:45:43.266Z,13.81
2024-02-15T11:48:12.197Z,13.77
2024-02-15T11:50:43.470Z,13.81
2024-02-15T11:53:11.564Z,13.84
2024-02-15T11:55:40.484Z,13.95
2024-02-15T11:58:12.033Z,14.00
2024-02-15T12:00:58.815Z,14.08
2024-02-15T12:03:53.024Z,14.04
2024-02-15T12:06:48.347Z,14.13
2024-02-15T12:09:37.655Z,14.09
2024-02-15T12:12:23.191Z,14.07
2024-02-15T12:15:08.540Z,14.14
2024-02-15T12:17:53.737Z,14.17
2024-02-15T12:20:26.164Z,14.10
2024-02-15T12:22:54.127Z,14.00
2024-02-15T12:25:22.160Z,14.07
2024-02-15T12:27:57.731Z,14.19
2024-02-15T12:30:26.706Z,14.24
2024-02-15T12:32:54.594Z,14.32
2024-02-15T12:35:26.767Z,14.31
2024-02-15T12:38:06.524Z,14.20
2024-02-15T12:40:35.078Z,14.22
2024-02-15T12:43:01.868Z,14.30
2024-02-15T12:45:31.767Z,14.31
2024-02-15T12:47:58.781Z,14.33
2024-02-15T12:50:29.960Z,14.33
2024-02-15T12:52:56.820Z,14.30
2024-02-15T12:55:28.107Z,14.26
2024-02-15T12:57:57.605Z,14.24
2024-02-15T13:00:34.265Z,14.20
2024-02-15T13:03:04.938Z,14.32
2024-02-15T13:05:32.687Z,14.41
2024-02-15T13:07:59.758Z,14.52
2024-02-15T13:10:26.346Z,14.59
2024-02-15T13:12:56.967Z,14.63
2024-02-15T13:15:28.414Z,14.62
2024-02-15T13:17:56.686Z,14.66
2024-02-15T13:20:33.738Z,14.66
2024-02-15T13:23:03.751Z,14.71
2024-02-15T13:25:33.526Z,14.73
2024-02-15T13:28:00.116Z,14.77
2024-02-15T13:30:28.858Z,14.74
2024-02-15T13:32:55.834Z,14.78
2024-02-15T13:35:24.818Z,14.79
2024-02-15T13:37:55.175Z,14.74
2024-02-15T13:40:24.713Z,14.78
2024-02-15T13:42:56.719Z,14.77
2024-02-15T13:45:25.165Z,14.86
2024-02-15T13:47:54.070Z,14.85
2024-02-15T13:50:21.843Z,14.79
2024-02-15T13:52:48.725Z,14.76
2024-02-15T13:55:17.322Z,14.79
2024-02-15T13:57:46.075Z,14.78
2024-02-15T14:00:22.742Z,14.79
2024-02-15T14:02:56.588Z,14.86
2024-02-15T14:05:29.220Z,14.88
2024-02-15T14:07:57.404Z,14.90
2024-02-15T14:10:25.488Z,14.89
2024-02-15T14:12:54.180Z,14.75
2024-02-15T14:15:20.817Z,14.74
2024-02-15T14:17:48.026Z,14.80
2024-02-15T14:20:15.145Z,14.88
2024-02-15T14:22:45.630Z,14.90
2024-02-15T14:25:12.545Z,14.89
2024-02-15T14:27:40.793Z,14.91
2024-02-15T14:30:26.896Z,14.90
2024-02-15T14:33:05.358Z,14.93
2024-02-15T14:35:37.295Z,14.97
2024-02-15T14:38:07.391Z,14.98
2024-02-15T14:40:46.960Z,15.02
2024-02-15T14:43:19.038Z,15.06
2024-02-15T14:45:46.234Z,15.08
2024-02-15T14:48:14.152Z,15.04
2024-02-15T14:50:41.568Z,15.03
2024-02-15T14:53:09.021Z,15.01
2024-02-15T14:55:36.206Z,14.98
2024-02-15T14:58:04.758Z,14.93
2024-02-15T15:00:37.873Z,15.01
2024-02-15T15:03:05.586Z,15.03
2024-02-15T15:05:51.260Z,15.09
2024-02-15T15:08:36.123Z,15.09
2024-02-15T15:11:21.044Z,15.03
2024-02-15T15:13:47.640Z,15.03
2024-02-15T15:16:18.752Z,15.00
2024-02-15T15:18:48.714Z,14.99
2024-02-15T15:21:19.519Z,14.98
2024-02-15T15:23:46.718Z,14.94
2024-02-15T15:26:20.426Z,14.97
2024-02-15T15:28:47.089Z,14.94
2024-02-15T15:31:13.740Z,14.96
2024-02-15T15:33:40.454Z,14.96
2024-02-15T15:36:07.382Z,14.99
2024-02-15T15:38:34.093Z,14.96
2024-02-15T15:41:00.739Z,14.93
2024-02-15T15:43:27.766Z,14.89
2024-02-15T15:45:55.937Z,14.84
2024-02-15T15:48:22.790Z,14.84
2024-02-15T15:50:50.304Z,14.84
2024-02-15T15:53:16.829Z,14.90
2024-02-15T15:55:43.394Z,15.01
2024-02-15T15:58:09.947Z,15.07
2024-02-15T16:00:37.718Z,15.04
2024-02-15T16:03:06.245Z,14.97
2024-02-15T16:05:33.146Z,14.93
2024-02-15T16:07:59.790Z,14.91
2024-02-15T16:10:29.585Z,14.89
2024-02-15T16:13:01.512Z,14.84
2024-02-15T16:15:28.637Z,14.82
2024-02-15T16:17:56.018Z,14.75
2024-02-15T16:20:23.845Z,14.64
2024-02-15T16:22:51.318Z,14.50
2024-02-15T16:25:18.486Z,14.42
2024-02-15T16:27:47.389Z,14.35
2024-02-15T16:30:14.942Z,14.29
2024-02-15T16:32:42.414Z,14.24
2024-02-15T16:35:14.307Z,14.16
2024-02-15T16:37:42.920Z,14.14
2024-02-15T16:40:13.019Z,14.14
2024-02-15T16:42:48.616Z,14.13
2024-02-15T16:45:19.591Z,14.04
2024-02-15T16:47:53.568Z,14.05
2024-02-15T16:50:20.937Z,13.91
2024-02-15T16:52:49.412Z,13.87
2024-02-15T16:55:16.746Z,13.96
2024-02-15T16:57:43.303Z,13.94
2024-02-15T17:00:13.632Z,13.96
2024-02-15T17:02:42.637Z,13.97
2024-02-15T17:05:09.495Z,13.94
2024-02-15T17:07:36.745Z,13.91
2024-02-15T17:10:03.512Z,13.89
2024-02-15T17:12:30.211Z,13.87
2024-02-15T17:14:57.044Z,13.87
2024-02-15T17:17:25.383Z,13.84
2024-02-15T17:19:52.553Z,13.84
2024-02-15T17:22:19.888Z,13.78
2024-02-15T17:24:46.586Z,13.75
2024-02-15T17:27:13.331Z,13.68
2024-02-15T17:29:40.904Z,13.66
2024-02-15T17:32:07.886Z,13.69
2024-02-15T17:34:34.554Z,13.66
2024-02-15T17:37:01.100Z,13.65
2024-02-15T17:39:27.764Z,13.71
2024-02-15T17:41:54.791Z,13.69
2024-02-15T17:44:21.546Z,13.65
2024-02-15T17:46:48.250Z,13.62
2024-02-15T17:49:15.135Z,13.56
2024-02-15T17:51:44.517Z,13.59
2024-02-15T17:54:11.318Z,13.60
2024-02-15T17:56:38.103Z,13.62
2024-02-15T17:59:04.710Z,13.60
2024-02-15T18:01:33.061Z,13.57
2024-02-15T18:03:59.925Z,13.56
2024-02-15T18:06:26.773Z,13.53
2024-02-15T18:08:53.658Z,13.49
2024-02-15T18:11:21.296Z,13.53
2024-02-15T18:13:48.380Z,13.52
2024-02-15T18:16:17.573Z,13.47
2024-02-15T18:18:44.495Z,13.47
2024-02-15T18:21:11.434Z,13.47
2024-02-15T18:23:40.422Z,13.46
2024-02-15T18:26:07.463Z,13.42
2024-02-15T18:28:34.193Z,13.42
2024-02-15T18:31:00.855Z,13.41
2024-02-15T18:33:30.723Z,13.33
2024-02-15T18:35:59.397Z,13.33
2024-02-15T18:38:29.518Z,13.33
2024-02-15T18:40:58.998Z,13.30
2024-02-15T18:43:26.363Z,13.32
2024-02-15T18:45:54.292Z,13.33
2024-02-15T18:48:21.656Z,13.27
2024-02-15T18:50:48.858Z,13.22
2024-02-15T18:53:16.687Z,13.22
2024-02-15T18:55:43.759Z,13.25
2024-02-15T18:58:10.692Z,13.23
2024-02-15T19:00:49.535Z,13.24
2024-02-15T19:03:23.471Z,13.27
2024-02-15T19:05:50.186Z,13.30
2024-02-15T19:08:17.769Z,13.26
2024-02-15T19:10:44.961Z,13.24
2024-02-15T19:13:11.583Z,13.19
2024-02-15T19:15:40.098Z,13.21
2024-02-15T19:18:08.047Z,13.18
2024-02-15T19:20:35.246Z,13.20
2024-02-15T19:23:01.903Z,13.22
2024-02-15T19:25:28.507Z,13.23
2024-02-15T19:27:55.125Z,13.21
2024-02-15T19:30:22.323Z,13.14
2024-02-15T19:32:50.685Z,13.17
2024-02-15T19:35:18.807Z,13.14
2024-02-15T19:37:46.902Z,13.18
2024-02-15T19:40:20.412Z,13.18
2024-02-15T19:42:48.740Z,13.15
2024-02-15T19:45:18.869Z,13.11
2024-02-15T19:47:49.011Z,13.10
2024-02-15T19:50:19.515Z,13.10
2024-02-15T19:52:48.346Z,13.06
2024-02-15T19:55:16.694Z,12.99
2024-02-15T19:57:43.366Z,13.01
2024-02-15T20:00:13.025Z,13.01
2024-02-15T20:02:39.784Z,13.00
2024-02-15T20:05:08.592Z,12.93
2024-02-15T20:07:38.359Z,12.94
2024-02-15T20:10:08.127Z,12.95
2024-02-15T20:12:35.561Z,12.98
2024-02-15T20:15:02.415Z,12.96
2024-02-15T20:17:29.472Z,12.97
2024-02-15T20:19:56.698Z,13.00
2024-02-15T20:22:23.342Z,13.00
2024-02-15T20:24:49.839Z,13.02
2024-02-15T20:27:20.824Z,12.94
2024-02-15T20:29:48.109Z,12.87
2024-02-15T20:32:14.664Z,12.93
2024-02-15T20:34:41.229Z,12.96
2024-02-15T20:37:07.704Z,12.98
2024-02-15T20:39:35.234Z,12.94
2024-02-15T20:42:03.918Z,12.97
2024-02-15T20:44:30.610Z,12.99
2024-02-15T20:46:57.522Z,13.01
2024-02-15T20:49:25.564Z,12.99
2024-02-15T20:51:52.840Z,12.94
2024-02-15T20:54:19.425Z,12.87
2024-02-15T20:56:48.404Z,12.81
2024-02-15T20:59:15.899Z,12.82
2024-02-15T21:01:42.517Z,12.82
2024-02-15T21:04:11.849Z,12.86
2024-02-15T21:06:39.428Z,12.90
2024-02-15T21:09:14.316Z,12.87
2024-02-15T21:11:41.560Z,12.89
2024-02-15T21:14:08.688Z,12.90
2024-02-15T21:16:35.289Z,12.86
2024-02-15T21:19:09.615Z,12.80
2024-02-15T21:21:37.396Z,12.86
2024-02-15T21:24:04.910Z,12.87
2024-02-15T21:26:31.673Z,12.85
2024-02-15T21:28:58.319Z,12.75
2024-02-15T21:31:26.451Z,12.64
2024-02-15T21:33:56.536Z,12.62
2024-02-15T21:36:24.009Z,12.68
2024-02-15T21:38:54.231Z,12.70
2024-02-15T21:41:21.155Z,12.70
2024-02-15T21:43:47.943Z,12.69
2024-02-15T21:46:14.725Z,12.72
2024-02-15T21:48:41.476Z,12.71
2024-02-15T21:51:08.160Z,12.75
2024-02-15T21:53:35.997Z,12.72
2024-02-15T21:56:02.738Z,12.68
2024-02-15T21:58:29.270Z,12.62
2024-02-15T22:00:57.483Z,12.70
2024-02-15T22:03:24.605Z,12.75
2024-02-15T22:05:51.713Z,12.79
2024-02-15T22:08:18.516Z,12.75
2024-02-15T22:10:45.139Z,12.76
2024-02-15T22:13:11.829Z,12.72
2024-02-15T22:15:39.497Z,12.74
2024-02-15T22:18:07.191Z,12.66
2024-02-15T22:20:36.056Z,12.61
2024-02-15T22:23:03.513Z,12.65
2024-02-15T22:25:31.551Z,12.67
2024-02-15T22:27:58.197Z,12.59
2024-02-15T22:30:24.782Z,12.68
2024-02-15T22:32:51.604Z,12.60
2024-02-15T22:35:18.284Z,12.61
2024-02-15T22:37:44.989Z,12.62
2024-02-15T22:40:11.783Z,12.63
2024-02-15T22:42:38.527Z,12.65
2024-02-15T22:45:05.911Z,12.63
2024-02-15T22:47:32.555Z,12.49
2024-02-15T22:49:59.199Z,12.56
2024-02-15T22:52:25.722Z,12.57
2024-02-15T22:54:52.878Z,12.59
2024-02-15T22:57:19.524Z,12.55
2024-02-15T22:59:46.247Z,12.47
2024-02-15T23:02:12.964Z,12.47
2024-02-15T23:04:39.724Z,12.45
2024-02-15T23:07:09.589Z,12.40
2024-02-15T23:09:37.235Z,12.46
2024-02-15T23:12:04.577Z,12.47
2024-02-15T23:14:31.608Z,12.46
2024-02-15T23:16:58.421Z,12.42
2024-02-15T23:19:25.346Z,12.43
2024-02-15T23:21:52.333Z,12.41
2024-02-15T23:24:19.596Z,12.34
2024-02-15T23:26:49.233Z,12.25
2024-02-15T23:29:17.122Z,12.25
2024-02-15T23:31:43.753Z,12.26
2024-02-15T23:34:10.878Z,12.28
2024-02-15T23:36:55.918Z,12.25
2024-02-15T23:39:40.941Z,12.20
2024-02-15T23:42:08.315Z,12.23
2024-02-15T23:44:35.207Z,12.22
2024-02-15T23:47:01.852Z,12.24
2024-02-15T23:49:28.944Z,12.21
2024-02-15T23:51:55.941Z,12.22
2024-02-15T23:54:22.710Z,12.21
2024-02-15T23:56:49.408Z,12.18
2024-02-15T23:59:16.242Z,12.21
